Time;durP1;ratioP1;P1;durP2;ratioP2;P2;SDS_P1;SDS_P2;PMS_P1;PMS_P2;Temp;Humidity;BMP_temperature;BMP_pressure;BME280_temperature;BME280_humidity;BME280_pressure;Samples;Min_cycle;Max_cycle;Signal;HPM_P1;HPM_P2
2022/07/07 00:01:29;;;;;;;0.70;0.70;;;14.70;99.90;;;;;;4995750;28;20492;-66
2022/07/07 00:03:57;;;;;;;0.50;0.50;;;14.70;99.90;;;;;;4997248;28;20875;-65
2022/07/07 00:06:24;;;;;;;0.60;0.60;;;14.70;99.90;;;;;;5006130;28;20488;-65
2022/07/07 00:08:54;;;;;;;0.60;0.60;;;14.80;99.90;;;;;;5008371;28;20433;-66
2022/07/07 00:11:22;;;;;;;0.52;0.52;;;14.80;99.90;;;;;;5009985;28;20436;-65
2022/07/07 00:13:50;;;;;;;0.70;0.70;;;14.80;99.90;;;;;;5007730;28;20443;-65
2022/07/07 00:16:18;;;;;;;0.43;0.43;;;14.80;99.90;;;;;;5009835;28;20436;-65
2022/07/07 00:18:47;;;;;;;0.50;0.50;;;14.80;99.90;;;;;;5005953;28;20429;-65
2022/07/07 00:21:14;;;;;;;0.40;0.40;;;14.80;99.90;;;;;;5006573;28;20429;-65
2022/07/07 00:23:41;;;;;;;0.45;0.45;;;14.80;99.90;;;;;;5009364;28;20467;-65
2022/07/07 00:26:08;;;;;;;0.50;0.50;;;14.80;99.90;;;;;;5004726;28;20425;-65
2022/07/07 00:28:35;;;;;;;0.60;0.60;;;14.80;99.90;;;;;;5008057;28;20450;-65
2022/07/07 00:31:01;;;;;;;0.55;0.55;;;14.70;99.90;;;;;;4997519;28;20436;-65
2022/07/07 00:33:28;;;;;;;0.52;0.52;;;14.70;99.90;;;;;;4999605;28;20435;-65
2022/07/07 00:35:57;;;;;;;0.50;0.50;;;14.70;99.90;;;;;;5009586;28;20433;-66
2022/07/07 00:38:24;;;;;;;0.40;0.40;;;14.70;99.90;;;;;;5007383;28;20467;-65
2022/07/07 00:40:56;;;;;;;0.50;0.50;;;14.70;99.90;;;;;;5008821;28;20508;-65
2022/07/07 00:43:23;;;;;;;0.60;0.60;;;14.60;99.90;;;;;;5005722;28;21174;-65
2022/07/07 00:45:51;;;;;;;0.53;0.53;;;14.60;99.90;;;;;;5009334;28;20436;-65
2022/07/07 00:48:19;;;;;;;0.50;0.50;;;14.50;99.90;;;;;;5006410;28;20527;-66
2022/07/07 00:50:50;;;;;;;0.40;0.40;;;14.50;99.90;;;;;;5005791;28;20512;-65
2022/07/07 00:53:16;;;;;;;0.40;0.40;;;14.50;99.90;;;;;;5009088;28;20432;-66
2022/07/07 00:55:43;;;;;;;0.67;0.57;;;14.50;99.90;;;;;;5002772;28;20467;-66
2022/07/07 00:58:10;;;;;;;0.50;0.50;;;14.50;99.90;;;;;;5006329;28;20438;-65
2022/07/07 01:00:37;;;;;;;0.40;0.40;;;14.50;99.90;;;;;;5007855;28;20592;-65
2022/07/07 01:03:04;;;;;;;0.40;0.40;;;14.50;99.90;;;;;;5015047;28;20443;-65
2022/07/07 01:05:32;;;;;;;0.40;0.40;;;14.50;99.90;;;;;;5003485;28;20432;-65
2022/07/07 01:08:02;;;;;;;0.45;0.45;;;14.50;99.90;;;;;;5009138;28;20537;-65
2022/07/07 01:10:30;;;;;;;0.50;0.50;;;14.60;99.90;;;;;;5004327;28;20433;-66
2022/07/07 01:13:02;;;;;;;0.50;0.50;;;14.60;99.90;;;;;;4993080;28;20942;-66
2022/07/07 01:15:29;;;;;;;0.60;0.60;;;14.70;99.90;;;;;;5004914;28;20523;-65
2022/07/07 01:17:56;;;;;;;0.60;0.60;;;14.70;99.90;;;;;;5012955;28;20925;-65
2022/07/07 01:20:23;;;;;;;0.43;0.43;;;14.70;99.90;;;;;;5001026;28;20876;-65
2022/07/07 01:22:53;;;;;;;0.50;0.50;;;14.70;99.90;;;;;;4992965;28;20517;-65
2022/07/07 01:25:21;;;;;;;0.60;0.60;;;14.70;99.90;;;;;;5003380;28;20437;-65
2022/07/07 01:27:49;;;;;;;0.50;0.50;;;14.70;99.90;;;;;;5006680;28;20437;-65
2022/07/07 01:30:17;;;;;;;0.60;0.60;;;14.70;99.90;;;;;;5009669;28;20432;-65
2022/07/07 01:32:44;;;;;;;0.50;0.50;;;14.70;99.90;;;;;;5012681;28;20432;-65
2022/07/07 01:35:11;;;;;;;0.77;0.77;;;14.70;99.90;;;;;;5009622;28;20444;-65
2022/07/07 01:37:38;;;;;;;0.40;0.40;;;14.70;99.90;;;;;;5011749;28;20424;-65
2022/07/07 01:40:05;;;;;;;0.40;0.40;;;14.80;99.90;;;;;;5006204;28;20427;-65
2022/07/07 01:42:32;;;;;;;0.40;0.40;;;14.80;99.90;;;;;;5009996;28;20428;-64
2022/07/07 01:45:02;;;;;;;0.40;0.40;;;14.90;99.90;;;;;;5010119;28;20428;-65
2022/07/07 01:47:30;;;;;;;0.50;0.50;;;14.80;99.90;;;;;;5007498;28;20468;-65
2022/07/07 01:49:59;;;;;;;0.53;0.50;;;14.90;99.90;;;;;;5009785;28;20438;-65
2022/07/07 01:52:26;;;;;;;0.35;0.35;;;14.80;99.90;;;;;;5012854;28;20437;-65
2022/07/07 01:54:53;;;;;;;0.40;0.40;;;14.80;99.90;;;;;;5026009;28;20483;-64
2022/07/07 01:57:20;;;;;;;0.50;0.50;;;14.70;99.90;;;;;;5010373;28;20520;-66
2022/07/07 01:59:46;;;;;;;0.50;0.50;;;14.70;99.90;;;;;;5023471;28;20523;-65
2022/07/07 02:02:13;;;;;;;0.45;0.45;;;14.70;99.90;;;;;;5011093;28;20436;-65
2022/07/07 02:04:42;;;;;;;0.40;0.40;;;14.60;99.90;;;;;;5010868;28;20439;-65
2022/07/07 02:07:09;;;;;;;0.40;0.40;;;14.70;99.90;;;;;;5009892;28;20443;-65
2022/07/07 02:09:39;;;;;;;0.50;0.50;;;14.70;99.90;;;;;;5011657;28;20433;-64
2022/07/07 02:12:06;;;;;;;0.50;0.50;;;14.70;99.90;;;;;;4992453;28;20526;-64
2022/07/07 02:14:35;;;;;;;0.50;0.50;;;14.80;99.90;;;;;;5004963;28;20441;-64
2022/07/07 02:17:02;;;;;;;0.50;0.50;;;14.80;99.90;;;;;;5009516;28;20958;-64
2022/07/07 02:19:28;;;;;;;0.40;0.40;;;14.80;99.90;;;;;;5011432;28;20429;-65
2022/07/07 02:21:55;;;;;;;0.60;0.40;;;14.80;99.90;;;;;;5002801;28;20439;-64
2022/07/07 02:24:22;;;;;;;0.38;0.38;;;14.80;99.90;;;;;;5010590;28;20912;-64
2022/07/07 02:26:49;;;;;;;0.40;0.40;;;14.80;99.90;;;;;;5011066;28;21018;-65
2022/07/07 02:29:16;;;;;;;0.60;0.60;;;14.80;99.90;;;;;;5009840;28;20431;-65
2022/07/07 02:31:43;;;;;;;0.63;0.63;;;14.80;99.90;;;;;;5002727;28;20424;-65
2022/07/07 02:34:10;;;;;;;0.40;0.40;;;14.80;99.90;;;;;;5010836;28;20896;-65
2022/07/07 02:36:40;;;;;;;0.50;0.50;;;14.80;99.90;;;;;;5010566;28;20490;-65
2022/07/07 02:39:06;;;;;;;0.43;0.43;;;14.80;99.90;;;;;;5009016;28;20428;-65
2022/07/07 02:41:33;;;;;;;0.50;0.50;;;14.80;99.90;;;;;;4999775;28;20440;-65
2022/07/07 02:44:00;;;;;;;0.40;0.40;;;14.80;99.90;;;;;;4991417;28;20509;-65
2022/07/07 02:46:28;;;;;;;0.43;0.43;;;14.80;99.90;;;;;;4992422;28;20497;-65
2022/07/07 02:48:55;;;;;;;0.30;0.30;;;14.80;99.90;;;;;;4996522;28;20432;-65
2022/07/07 02:51:24;;;;;;;0.30;0.30;;;14.80;99.90;;;;;;5024858;28;20464;-67
2022/07/07 02:53:51;;;;;;;0.43;0.43;;;14.70;99.90;;;;;;5008060;28;20432;-66
2022/07/07 02:56:19;;;;;;;0.50;0.50;;;14.80;99.90;;;;;;4999303;28;20435;-66
2022/07/07 02:58:46;;;;;;;0.65;0.65;;;14.80;99.90;;;;;;5004504;28;20442;-65
2022/07/07 03:01:12;;;;;;;2.00;0.60;;;14.80;99.90;;;;;;5005677;28;20927;-65
2022/07/07 03:03:39;;;;;;;0.68;0.68;;;14.70;99.90;;;;;;5009884;28;20436;-65
2022/07/07 03:06:09;;;;;;;0.40;0.40;;;14.80;99.90;;;;;;5008958;28;20437;-65
2022/07/07 03:08:35;;;;;;;0.57;0.57;;;14.80;99.90;;;;;;5010561;28;20440;-66
2022/07/07 03:11:02;;;;;;;0.40;0.40;;;14.80;99.90;;;;;;5009073;28;20438;-65
2022/07/07 03:13:29;;;;;;;0.50;0.50;;;14.90;99.90;;;;;;5010221;28;20886;-66
2022/07/07 03:15:57;;;;;;;0.43;0.43;;;14.80;99.90;;;;;;5006760;28;20459;-67
2022/07/07 03:18:24;;;;;;;0.38;0.38;;;14.80;99.90;;;;;;5023315;28;20495;-66
2022/07/07 03:20:54;;;;;;;0.38;0.38;;;14.90;99.90;;;;;;5009752;28;20433;-66
2022/07/07 03:23:21;;;;;;;0.52;0.52;;;14.90;99.90;;;;;;4990853;28;20434;-65
2022/07/07 03:25:47;;;;;;;0.50;0.50;;;14.90;99.90;;;;;;5004844;28;20440;-65
2022/07/07 03:28:14;;;;;;;0.60;0.60;;;14.90;99.90;;;;;;4991218;28;20470;-65
2022/07/07 03:30:41;;;;;;;0.50;0.50;;;14.90;99.90;;;;;;4990941;28;20438;-65
2022/07/07 03:33:08;;;;;;;0.52;0.52;;;14.90;99.90;;;;;;4992444;28;20444;-65
2022/07/07 03:35:38;;;;;;;0.50;0.50;;;14.90;99.90;;;;;;4995323;28;20906;-65
2022/07/07 03:38:05;;;;;;;0.40;0.40;;;14.90;99.90;;;;;;5006286;28;20428;-65
2022/07/07 03:40:34;;;;;;;0.50;0.50;;;15.00;99.90;;;;;;5010735;28;20575;-64
2022/07/07 03:43:00;;;;;;;0.47;0.47;;;15.00;99.90;;;;;;4995628;28;20466;-65
2022/07/07 03:45:30;;;;;;;0.30;0.30;;;15.00;99.90;;;;;;4993514;28;20440;-65
2022/07/07 03:47:57;;;;;;;0.40;0.40;;;15.10;99.90;;;;;;5003704;28;20436;-65
2022/07/07 03:50:24;;;;;;;0.50;0.50;;;15.10;99.90;;;;;;5010342;28;20424;-65
2022/07/07 03:52:51;;;;;;;0.60;0.60;;;15.10;99.90;;;;;;5006100;28;20444;-65
2022/07/07 03:55:18;;;;;;;0.47;0.47;;;15.10;99.90;;;;;;5006273;28;20498;-65
2022/07/07 03:57:45;;;;;;;0.40;0.40;;;15.20;99.90;;;;;;5008771;28;20433;-65
2022/07/07 04:00:12;;;;;;;0.30;0.30;;;15.20;99.90;;;;;;5010473;28;20503;-65
2022/07/07 04:02:39;;;;;;;0.40;0.40;;;15.20;99.90;;;;;;5007803;28;20441;-65
2022/07/07 04:05:07;;;;;;;0.30;0.30;;;15.20;99.90;;;;;;5007274;28;20435;-65
2022/07/07 04:07:34;;;;;;;0.63;0.40;;;15.20;99.90;;;;;;5001819;28;20908;-65
2022/07/07 04:10:02;;;;;;;0.40;0.40;;;15.20;99.90;;;;;;4994989;28;20483;-65
2022/07/07 04:12:29;;;;;;;0.50;0.40;;;15.20;99.90;;;;;;5009060;28;20436;-64
2022/07/07 04:14:56;;;;;;;0.40;0.40;;;15.30;99.90;;;;;;5024483;28;20451;-64
2022/07/07 04:17:25;;;;;;;0.40;0.40;;;15.30;99.90;;;;;;5008411;28;20432;-64
2022/07/07 04:19:52;;;;;;;0.40;0.40;;;15.30;99.90;;;;;;5009905;28;20490;-65
2022/07/07 04:22:19;;;;;;;0.50;0.50;;;15.30;99.90;;;;;;5003912;28;20428;-64
2022/07/07 04:24:46;;;;;;;0.32;0.32;;;15.30;99.90;;;;;;5005107;28;20530;-64
2022/07/07 04:27:12;;;;;;;0.30;0.30;;;15.30;99.90;;;;;;5005976;28;20467;-65
2022/07/07 04:29:39;;;;;;;0.40;0.40;;;15.40;99.90;;;;;;5009571;28;20437;-64
2022/07/07 04:32:07;;;;;;;0.52;0.52;;;15.30;99.90;;;;;;5009272;28;20424;-65
2022/07/07 04:34:33;;;;;;;0.40;0.40;;;15.40;99.90;;;;;;5009169;28;20437;-65
2022/07/07 04:37:00;;;;;;;0.30;0.30;;;15.40;99.90;;;;;;5009238;28;20915;-65
2022/07/07 04:39:27;;;;;;;1.08;0.32;;;15.50;99.90;;;;;;5010224;28;20431;-65
2022/07/07 04:41:54;;;;;;;0.30;0.30;;;15.50;99.90;;;;;;5015641;28;20491;-64
2022/07/07 04:44:21;;;;;;;0.35;0.35;;;15.50;99.90;;;;;;5013183;28;20433;-65
2022/07/07 04:46:48;;;;;;;0.30;0.30;;;15.60;99.90;;;;;;5010517;28;20482;-65
2022/07/07 04:49:15;;;;;;;0.50;0.50;;;15.60;99.90;;;;;;5022528;28;20438;-65
2022/07/07 04:51:48;;;;;;;0.30;0.30;;;15.60;99.90;;;;;;5013391;28;20457;-65
2022/07/07 04:54:16;;;;;;;0.50;0.50;;;15.70;99.90;;;;;;5012029;28;20436;-65
2022/07/07 04:56:42;;;;;;;0.40;0.40;;;15.80;99.90;;;;;;5009397;28;20459;-65
2022/07/07 04:59:09;;;;;;;0.40;0.40;;;15.90;99.90;;;;;;5000936;28;20439;-65
2022/07/07 05:01:36;;;;;;;0.30;0.30;;;16.10;99.90;;;;;;5006547;28;20437;-65
2022/07/07 05:04:03;;;;;;;0.40;0.40;;;16.20;99.90;;;;;;5012840;28;20436;-65
2022/07/07 05:06:30;;;;;;;0.40;0.40;;;16.40;99.90;;;;;;5016116;28;20430;-65
2022/07/07 05:08:57;;;;;;;0.40;0.40;;;16.60;99.90;;;;;;5017307;28;20432;-65
2022/07/07 05:11:26;;;;;;;1.40;0.57;;;16.80;99.90;;;;;;5014299;28;20792;-65
2022/07/07 05:13:53;;;;;;;0.40;0.40;;;17.50;99.90;;;;;;5009022;28;20428;-65
2022/07/07 05:16:20;;;;;;;0.30;0.30;;;17.80;99.90;;;;;;5014391;28;20428;-65
2022/07/07 05:18:47;;;;;;;0.50;0.50;;;17.90;99.90;;;;;;5026447;28;20897;-65
2022/07/07 05:21:14;;;;;;;0.50;0.50;;;18.00;99.90;;;;;;5012930;28;20433;-65
2022/07/07 05:23:40;;;;;;;0.30;0.30;;;17.80;99.90;;;;;;5014796;28;20490;-63
2022/07/07 05:26:13;;;;;;;0.40;0.40;;;17.60;99.90;;;;;;5022493;28;20446;-65
2022/07/07 05:28:43;;;;;;;0.40;0.40;;;17.50;99.90;;;;;;5015627;28;20464;-65
2022/07/07 05:31:14;;;;;;;0.40;0.40;;;17.90;99.90;;;;;;5005526;28;20444;-65
2022/07/07 05:33:42;;;;;;;0.30;0.30;;;18.30;99.90;;;;;;5008896;28;20439;-65
2022/07/07 05:36:09;;;;;;;0.45;0.45;;;18.30;99.90;;;;;;5007635;28;20432;-65
2022/07/07 05:38:36;;;;;;;0.40;0.40;;;18.60;99.90;;;;;;5004003;28;20984;-64
2022/07/07 05:41:03;;;;;;;0.43;0.43;;;18.50;99.90;;;;;;5005768;28;20443;-64
2022/07/07 05:43:29;;;;;;;0.40;0.40;;;18.20;99.90;;;;;;5011708;28;20451;-64
2022/07/07 05:45:57;;;;;;;0.30;0.30;;;18.00;99.90;;;;;;5013703;28;20923;-64
2022/07/07 05:48:23;;;;;;;0.50;0.40;;;17.70;99.90;;;;;;5011639;28;20450;-65
2022/07/07 05:50:50;;;;;;;0.50;0.50;;;17.60;99.90;;;;;;5000290;28;20905;-65
2022/07/07 05:53:17;;;;;;;0.50;0.50;;;17.70;99.90;;;;;;5008123;28;20448;-63
2022/07/07 05:55:44;;;;;;;0.60;0.60;;;17.70;99.90;;;;;;5021676;28;20469;-63
2022/07/07 05:58:12;;;;;;;0.50;0.50;;;17.70;99.90;;;;;;4997793;28;20428;-63
2022/07/07 06:00:40;;;;;;;0.47;0.47;;;17.80;99.90;;;;;;5019287;28;20942;-63
2022/07/07 06:03:07;;;;;;;0.30;0.30;;;17.80;99.90;;;;;;5005634;28;21276;-64
2022/07/07 06:05:35;;;;;;;0.40;0.40;;;17.70;99.90;;;;;;5010545;28;20923;-63
2022/07/07 06:08:01;;;;;;;0.38;0.38;;;17.70;99.90;;;;;;5010201;28;20959;-63
2022/07/07 06:10:28;;;;;;;0.47;0.47;;;17.70;99.90;;;;;;5013879;28;20439;-63
2022/07/07 06:12:55;;;;;;;0.30;0.30;;;17.70;99.90;;;;;;5018103;28;20457;-63
2022/07/07 06:15:22;;;;;;;0.50;0.50;;;17.60;99.90;;;;;;5011926;28;20432;-63
2022/07/07 06:17:49;;;;;;;0.80;0.50;;;17.60;99.90;;;;;;5010984;28;20431;-64
2022/07/07 06:20:39;;;;;;;0.40;0.40;;;17.60;99.90;;;;;;5001328;28;20420;-64
2022/07/07 06:23:09;;;;;;;0.45;0.45;;;17.60;99.90;;;;;;5009244;28;20437;-63
2022/07/07 06:25:36;;;;;;;0.60;0.60;;;17.70;99.90;;;;;;5005806;28;20513;-63
2022/07/07 06:28:03;;;;;;;0.50;0.43;;;17.70;99.90;;;;;;4999219;28;20436;-63
2022/07/07 06:30:30;;;;;;;0.40;0.40;;;17.70;99.90;;;;;;5002994;28;20524;-63
2022/07/07 06:32:57;;;;;;;0.50;0.50;;;17.70;99.90;;;;;;5003929;28;20438;-63
2022/07/07 06:35:26;;;;;;;0.40;0.40;;;17.80;99.90;;;;;;5006620;28;20901;-64
2022/07/07 06:37:53;;;;;;;0.40;0.40;;;17.80;99.90;;;;;;5007010;28;20457;-64
2022/07/07 06:40:21;;;;;;;0.40;0.40;;;17.80;99.90;;;;;;5009581;28;20456;-64
2022/07/07 06:42:47;;;;;;;0.35;0.35;;;17.80;99.90;;;;;;5001883;28;20432;-64
2022/07/07 06:45:20;;;;;;;0.40;0.40;;;17.80;99.90;;;;;;5008658;28;20428;-65
2022/07/07 06:47:47;;;;;;;0.60;0.60;;;17.90;99.90;;;;;;5000346;28;20451;-64
2022/07/07 06:50:19;;;;;;;0.40;0.40;;;18.00;99.90;;;;;;5006037;28;20445;-64
2022/07/07 06:52:46;;;;;;;0.90;0.40;;;18.20;99.90;;;;;;5001037;28;20816;-64
2022/07/07 06:55:12;;;;;;;0.45;0.45;;;18.30;99.90;;;;;;5006178;28;20436;-64
2022/07/07 06:57:39;;;;;;;0.50;0.50;;;18.40;99.90;;;;;;5004361;28;20430;-64
2022/07/07 07:00:07;;;;;;;0.50;0.50;;;18.70;99.90;;;;;;5002027;28;20978;-65
2022/07/07 07:02:41;;;;;;;0.43;0.43;;;18.80;99.90;;;;;;5000429;28;20436;-64
2022/07/07 07:05:08;;;;;;;0.35;0.35;;;19.00;99.90;;;;;;5000069;28;20437;-64
2022/07/07 07:07:35;;;;;;;0.60;0.60;;;19.20;99.90;;;;;;5004345;28;20445;-64
2022/07/07 07:10:02;;;;;;;0.50;0.40;;;19.30;99.90;;;;;;5000252;28;20441;-64
2022/07/07 07:12:29;;;;;;;0.50;0.50;;;19.40;99.90;;;;;;5009973;28;20433;-64
2022/07/07 07:14:56;;;;;;;0.40;0.40;;;19.40;99.90;;;;;;5000648;28;20443;-65
2022/07/07 07:17:22;;;;;;;0.33;0.33;;;19.20;99.90;;;;;;5006606;28;20532;-64
2022/07/07 07:19:49;;;;;;;0.50;0.50;;;19.10;99.90;;;;;;5007440;28;20433;-63
2022/07/07 07:22:16;;;;;;;0.45;0.45;;;19.20;99.90;;;;;;5004453;28;20424;-64
2022/07/07 07:24:42;;;;;;;0.40;0.40;;;19.30;99.90;;;;;;5008419;28;20437;-64
2022/07/07 07:27:09;;;;;;;0.52;0.45;;;19.40;99.90;;;;;;5005958;28;20453;-64
2022/07/07 07:29:36;;;;;;;0.45;0.45;;;19.80;99.90;;;;;;5004261;28;20447;-65
2022/07/07 07:32:03;;;;;;;0.65;0.65;;;20.20;99.90;;;;;;5008441;28;20432;-64
2022/07/07 07:34:30;;;;;;;0.30;0.30;;;20.40;99.90;;;;;;5004596;28;20457;-64
2022/07/07 07:36:57;;;;;;;0.40;0.40;;;20.70;99.90;;;;;;5004992;28;20545;-65
2022/07/07 07:39:23;;;;;;;0.55;0.55;;;20.70;99.90;;;;;;5001441;28;20440;-64
2022/07/07 07:41:50;;;;;;;0.50;0.50;;;20.70;99.90;;;;;;5006440;28;20451;-63
2022/07/07 07:45:09;;;;;;;0.43;0.43;;;20.60;99.90;;;;;;5004811;28;20445;-65
2022/07/07 07:47:04;;;;;;;0.45;0.45;;;20.30;99.90;;;;;;5003074;28;20521;-65
2022/07/07 07:49:31;;;;;;;0.50;0.50;;;20.20;99.90;;;;;;5006262;28;20444;-65
2022/07/07 07:51:58;;;;;;;0.85;0.47;;;20.10;99.90;;;;;;5006700;28;20437;-64
2022/07/07 07:54:35;;;;;;;0.75;0.75;;;20.00;99.90;;;;;;5002061;28;21110;-63
2022/07/07 07:57:02;;;;;;;0.40;0.40;;;19.90;99.90;;;;;;5002443;28;20433;-63
2022/07/07 07:59:29;;;;;;;0.50;0.50;;;19.90;99.90;;;;;;5001319;28;20511;-65
2022/07/07 08:01:56;;;;;;;0.60;0.60;;;19.90;99.90;;;;;;4998928;28;20500;-65
2022/07/07 08:04:22;;;;;;;0.50;0.50;;;20.00;99.90;;;;;;5007633;28;20434;-64
2022/07/07 08:06:49;;;;;;;0.40;0.40;;;20.20;99.90;;;;;;5007117;28;20440;-63
2022/07/07 08:09:16;;;;;;;0.43;0.43;;;20.50;99.90;;;;;;5011792;28;20436;-63
2022/07/07 08:11:43;;;;;;;0.40;0.40;;;20.80;99.90;;;;;;5008353;28;20495;-63
2022/07/07 08:14:10;;;;;;;0.70;0.40;;;21.00;99.90;;;;;;5003466;28;20437;-61
2022/07/07 08:16:37;;;;;;;0.40;0.40;;;21.20;99.90;;;;;;5006693;28;20443;-64
2022/07/07 08:19:07;;;;;;;2.60;0.60;;;21.30;99.90;;;;;;5011753;28;20435;-65
2022/07/07 08:21:34;;;;;;;1.23;0.40;;;21.30;99.90;;;;;;5011015;28;20442;-64
2022/07/07 08:24:01;;;;;;;0.47;0.47;;;21.40;99.90;;;;;;5008995;28;20428;-65
2022/07/07 08:26:28;;;;;;;0.40;0.40;;;21.40;99.90;;;;;;5013475;28;20489;-63
2022/07/07 08:28:54;;;;;;;0.30;0.30;;;21.60;99.90;;;;;;5017293;28;20437;-65
2022/07/07 08:31:22;;;;;;;0.50;0.50;;;21.60;99.90;;;;;;5008813;28;20436;-64
2022/07/07 08:33:49;;;;;;;0.40;0.40;;;21.70;99.90;;;;;;5019904;28;20442;-64
2022/07/07 08:36:15;;;;;;;0.43;0.43;;;21.90;99.90;;;;;;5009543;28;20444;-63
2022/07/07 08:38:45;;;;;;;0.43;0.43;;;22.20;99.90;;;;;;5007427;28;20498;-63
2022/07/07 08:41:15;;;;;;;0.40;0.40;;;22.20;99.90;;;;;;5008500;28;20432;-64
2022/07/07 08:43:42;;;;;;;0.40;0.40;;;22.10;99.90;;;;;;5008274;28;20438;-63
2022/07/07 08:46:09;;;;;;;0.40;0.40;;;22.00;99.90;;;;;;5007183;28;20781;-65
2022/07/07 08:48:36;;;;;;;0.45;0.45;;;21.80;99.90;;;;;;5016120;28;20506;-64
2022/07/07 08:51:03;;;;;;;0.40;0.40;;;21.70;99.90;;;;;;5014060;28;22123;-65
2022/07/07 08:53:33;;;;;;;0.50;0.50;;;21.50;99.90;;;;;;5012656;28;20426;-64
2022/07/07 08:56:04;;;;;;;0.40;0.40;;;21.40;99.90;;;;;;5000522;28;20460;-63
2022/07/07 08:58:36;;;;;;;0.60;0.60;;;21.50;99.90;;;;;;5009242;28;20463;-66
2022/07/07 09:01:23;;;;;;;0.45;0.45;;;21.90;99.90;;;;;;5014522;28;20688;-65
2022/07/07 09:03:50;;;;;;;0.30;0.30;;;22.40;99.90;;;;;;5014885;28;20449;-63
2022/07/07 09:06:17;;;;;;;0.40;0.40;;;22.70;99.90;;;;;;5006313;28;20852;-64
2022/07/07 09:08:50;;;;;;;0.52;0.40;;;22.80;99.90;;;;;;5002709;28;21124;-66
2022/07/07 09:11:25;;;;;;;0.30;0.30;;;22.80;99.90;;;;;;4995648;28;20432;-65
2022/07/07 09:14:17;;;;;;;0.30;0.30;;;22.80;99.90;;;;;;4991999;28;20511;-64
2022/07/07 09:16:43;;;;;;;0.40;0.40;;;23.00;99.90;;;;;;4998857;28;20440;-64
2022/07/07 09:19:19;;;;;;;0.35;0.35;;;23.10;99.90;;;;;;5007130;28;20442;-64
2022/07/07 09:21:46;;;;;;;0.40;0.40;;;23.20;99.90;;;;;;5003278;28;20819;-64
2022/07/07 09:24:14;;;;;;;0.30;0.30;;;23.30;99.90;;;;;;5005702;28;20487;-64
2022/07/07 09:26:42;;;;;;;0.30;0.30;;;23.50;99.90;;;;;;5000838;28;20521;-63
2022/07/07 09:29:15;;;;;;;0.63;0.50;;;23.50;99.90;;;;;;5004691;28;20457;-63
2022/07/07 09:31:55;;;;;;;0.40;0.40;;;23.70;99.90;;;;;;5011369;28;20953;-63
2022/07/07 09:34:24;;;;;;;0.38;0.38;;;23.60;99.90;;;;;;5006679;28;20638;-64
2022/07/07 09:39:45;;;;;;;0.30;0.30;;;23.50;99.90;;;;;;4999863;28;20528;-63
2022/07/07 09:42:36;;;;;;;0.30;0.30;;;23.10;99.90;;;;;;5009807;28;20904;-64
2022/07/07 09:45:12;;;;;;;0.30;0.30;;;22.60;99.90;;;;;;5002452;28;21116;-64
2022/07/07 09:47:39;;;;;;;0.30;0.30;;;22.00;99.90;;;;;;5006190;28;20440;-63
2022/07/07 09:50:17;;;;;;;0.35;0.35;;;21.80;99.90;;;;;;5006466;28;20467;-63
2022/07/07 09:52:47;;;;;;;0.30;0.30;;;21.70;99.90;;;;;;4998836;28;20495;-64
2022/07/07 09:55:17;;;;;;;0.30;0.30;;;21.60;99.90;;;;;;5019296;28;20593;-62
2022/07/07 09:57:44;;;;;;;0.28;0.28;;;20.70;99.90;;;;;;5003064;28;21198;-64
2022/07/07 10:00:12;;;;;;;0.40;0.40;;;19.90;99.90;;;;;;5004744;28;20953;-64
2022/07/07 10:02:39;;;;;;;0.40;0.40;;;19.60;99.90;;;;;;4996457;28;20433;-63
2022/07/07 10:05:06;;;;;;;0.30;0.30;;;19.70;99.90;;;;;;5003177;28;20463;-64
2022/07/07 10:07:34;;;;;;;0.37;0.37;;;20.20;99.90;;;;;;5000199;28;20472;-64
2022/07/07 10:10:03;;;;;;;0.60;0.50;;;20.80;99.90;;;;;;4998071;28;20436;-64
2022/07/07 10:12:30;;;;;;;0.40;0.40;;;21.30;99.90;;;;;;5001803;28;20452;-64
2022/07/07 10:15:08;;;;;;;0.30;0.30;;;22.00;99.90;;;;;;5000874;28;20441;-63
2022/07/07 10:17:36;;;;;;;0.50;0.50;;;22.60;99.90;;;;;;5003423;28;20485;-64
2022/07/07 10:20:04;;;;;;;0.20;0.20;;;23.00;99.90;;;;;;5003300;28;20428;-63
2022/07/07 10:22:31;;;;;;;0.20;0.20;;;23.20;99.90;;;;;;5002027;28;20456;-64
2022/07/07 10:25:00;;;;;;;0.20;0.20;;;23.10;99.90;;;;;;4994817;28;20828;-63
2022/07/07 10:27:28;;;;;;;0.47;0.20;;;22.90;99.90;;;;;;5001750;28;20792;-62
2022/07/07 10:29:58;;;;;;;0.20;0.20;;;23.10;99.90;;;;;;5003458;28;20442;-62
2022/07/07 10:32:33;;;;;;;0.30;0.30;;;23.20;99.90;;;;;;5007924;28;20432;-66
2022/07/07 10:35:09;;;;;;;0.30;0.30;;;23.80;99.90;;;;;;5006755;28;20460;-63
2022/07/07 10:37:52;;;;;;;0.30;0.30;;;24.30;99.90;;;;;;5004160;28;20437;-62
2022/07/07 10:40:28;;;;;;;0.30;0.30;;;24.40;99.90;;;;;;5006211;28;20540;-64
2022/07/07 10:43:06;;;;;;;0.40;0.40;;;24.30;99.90;;;;;;5000364;28;20469;-63
2022/07/07 10:45:33;;;;;;;0.35;0.35;;;24.40;99.90;;;;;;5005018;28;20516;-62
2022/07/07 10:47:59;;;;;;;0.30;0.30;;;24.60;99.90;;;;;;5008972;28;21102;-63
2022/07/07 10:50:28;;;;;;;0.30;0.30;;;24.70;99.90;;;;;;5007933;28;20506;-63
2022/07/07 10:52:56;;;;;;;0.20;0.20;;;25.20;99.90;;;;;;5006920;28;20486;-63
2022/07/07 10:55:55;;;;;;;0.30;0.30;;;25.40;99.90;;;;;;5006365;28;20429;-65
2022/07/07 10:58:41;;;;;;;0.30;0.30;;;25.00;99.90;;;;;;5004395;28;20529;-62
2022/07/07 11:01:08;;;;;;;0.30;0.30;;;24.30;99.90;;;;;;5003364;28;20438;-63
2022/07/07 11:03:39;;;;;;;0.30;0.30;;;23.60;99.90;;;;;;5008138;28;20468;-62
2022/07/07 11:06:06;;;;;;;0.70;0.60;;;22.80;99.90;;;;;;5005819;28;20432;-65
2022/07/07 11:08:37;;;;;;;0.35;0.35;;;22.00;99.90;;;;;;5006174;28;20527;-64
2022/07/07 11:11:05;;;;;;;0.25;0.25;;;21.50;99.90;;;;;;5006383;28;20511;-63
2022/07/07 11:13:39;;;;;;;0.27;0.27;;;21.20;99.90;;;;;;4999877;28;20438;-63
2022/07/07 11:16:15;;;;;;;0.25;0.25;;;20.90;99.90;;;;;;5005839;28;20448;-63
2022/07/07 11:18:47;;;;;;;0.20;0.20;;;20.50;99.90;;;;;;5004045;28;20440;-61
2022/07/07 11:21:14;;;;;;;0.20;0.20;;;20.10;99.90;;;;;;5004521;28;20431;-64
2022/07/07 11:23:48;;;;;;;0.20;0.20;;;20.00;99.90;;;;;;5000816;28;20494;-66
2022/07/07 11:26:17;;;;;;;0.20;0.20;;;20.20;99.90;;;;;;5011239;28;20932;-61
2022/07/07 11:28:50;;;;;;;0.20;0.20;;;21.40;99.90;;;;;;5001927;28;20440;-66
2022/07/07 11:31:16;;;;;;;0.20;0.20;;;22.20;99.90;;;;;;5002249;28;21126;-65
2022/07/07 11:33:56;;;;;;;0.20;0.20;;;22.80;99.90;;;;;;5000663;28;20527;-64
2022/07/07 11:36:28;;;;;;;0.20;0.20;;;23.50;99.90;;;;;;4994153;28;21299;-67
2022/07/07 11:39:00;;;;;;;0.20;0.20;;;24.50;99.90;;;;;;5001142;28;20531;-66
2022/07/07 11:41:44;;;;;;;0.20;0.20;;;24.70;99.90;;;;;;5002587;28;20804;-66
2022/07/07 11:44:21;;;;;;;0.20;0.20;;;24.90;99.90;;;;;;4999940;28;20926;-64
2022/07/07 11:46:53;;;;;;;0.20;0.20;;;25.30;99.90;;;;;;4998896;28;20438;-65
2022/07/07 11:49:21;;;;;;;0.20;0.20;;;25.70;99.90;;;;;;5004372;28;20490;-64
2022/07/07 11:51:49;;;;;;;0.20;0.20;;;25.70;98.90;;;;;;5001242;28;20432;-67
2022/07/07 11:54:17;;;;;;;0.30;0.30;;;25.70;98.30;;;;;;5001231;28;20433;-64
2022/07/07 11:56:43;;;;;;;0.20;0.20;;;25.90;97.80;;;;;;5001450;28;20519;-65
2022/07/07 11:59:12;;;;;;;0.20;0.20;;;26.20;97.80;;;;;;5010538;28;20458;-64
2022/07/07 12:01:41;;;;;;;0.32;0.22;;;25.70;98.30;;;;;;5000705;28;20452;-65
2022/07/07 12:04:22;;;;;;;0.20;0.20;;;25.40;98.90;;;;;;5005964;28;20432;-65
2022/07/07 12:06:50;;;;;;;0.20;0.20;;;24.90;99.50;;;;;;5003050;28;20516;-64
2022/07/07 12:09:20;;;;;;;0.25;0.25;;;24.30;99.90;;;;;;5008684;28;20432;-64
2022/07/07 12:11:48;;;;;;;0.20;0.20;;;24.10;99.90;;;;;;5002771;28;20434;-65
2022/07/07 12:14:16;;;;;;;0.30;0.30;;;24.30;99.90;;;;;;5003888;28;20454;-65
2022/07/07 12:16:48;;;;;;;0.20;0.20;;;24.60;99.90;;;;;;5006822;28;20971;-64
2022/07/07 12:19:16;;;;;;;0.30;0.30;;;24.60;99.90;;;;;;5000593;28;20540;-65
2022/07/07 12:21:47;;;;;;;0.30;0.30;;;24.60;99.90;;;;;;5006063;28;20548;-65
2022/07/07 12:24:33;;;;;;;0.22;0.22;;;24.50;99.90;;;;;;5005644;28;20514;-63
2022/07/07 12:27:20;;;;;;;0.30;0.30;;;24.10;99.90;;;;;;5005114;28;20421;-66
2022/07/07 12:30:05;;;;;;;0.30;0.30;;;23.70;99.90;;;;;;4995734;28;21107;-63
2022/07/07 12:32:32;;;;;;;0.30;0.30;;;23.40;99.90;;;;;;5011588;28;20436;-63
2022/07/07 12:34:59;;;;;;;0.30;0.30;;;23.10;99.90;;;;;;5000249;28;20443;-63
2022/07/07 12:37:42;;;;;;;0.35;0.35;;;22.80;99.90;;;;;;5017612;28;20433;-65
2022/07/07 12:40:12;;;;;;;0.20;0.20;;;22.60;99.90;;;;;;5001423;28;20519;-63
2022/07/07 12:42:45;;;;;;;0.30;0.30;;;22.60;99.90;;;;;;5005395;28;20432;-65
2022/07/07 12:45:14;;;;;;;0.30;0.30;;;22.30;99.90;;;;;;5004205;28;20433;-64
2022/07/07 12:47:52;;;;;;;0.50;0.50;;;22.20;99.90;;;;;;5005117;28;20463;-64
2022/07/07 12:50:21;;;;;;;0.40;0.40;;;21.80;99.90;;;;;;5021165;28;20826;-65
2022/07/07 12:53:02;;;;;;;0.50;0.50;;;21.80;99.90;;;;;;5005250;28;20439;-64
2022/07/07 12:55:34;;;;;;;0.32;0.32;;;22.10;99.90;;;;;;5003289;28;20436;-65
2022/07/07 12:58:04;;;;;;;0.38;0.38;;;22.70;99.90;;;;;;5005020;28;20890;-65
2022/07/07 13:00:31;;;;;;;0.30;0.30;;;23.10;99.90;;;;;;5002876;28;20515;-65